Time;durP1;ratioP1;P1;durP2;ratioP2;P2;SDS_P1;SDS_P2;PMS_P1;PMS_P2;Temp;Humidity;BMP_temperature;BMP_pressure;BME280_temperature;BME280_humidity;BME280_pressure;Samples;Min_cycle;Max_cycle;Signal;HPM_P1;HPM_P2
2022/07/05 00:01:12;;;;;;;9.98;6.28;;;;;;;23.61;63.59;100478.95;1726874;82;20996;-58
2022/07/05 00:03:39;;;;;;;8.33;5.35;;;;;;;23.59;63.72;100483.67;1726062;82;21054;-57
2022/07/05 00:06:06;;;;;;;7.95;5.60;;;;;;;23.60;63.72;100476.76;1728203;82;21019;-57
2022/07/05 00:08:33;;;;;;;8.60;6.55;;;;;;;23.62;63.72;100480.58;1726337;82;22341;-58
2022/07/05 00:11:00;;;;;;;9.43;5.92;;;;;;;23.58;63.93;100482.86;1734168;81;21534;-58
2022/07/05 00:13:26;;;;;;;12.47;6.03;;;;;;;23.56;63.98;100484.41;1670042;85;21568;-57
2022/07/05 00:15:53;;;;;;;7.28;5.72;;;;;;;23.53;64.02;100485.34;1723310;82;21059;-57
2022/07/05 00:18:19;;;;;;;9.90;6.22;;;;;;;23.48;64.07;100488.63;1729753;82;21043;-57
2022/07/05 00:20:46;;;;;;;9.75;5.85;;;;;;;23.45;64.00;100486.39;1729192;82;22017;-57
2022/07/05 00:23:13;;;;;;;8.15;5.70;;;;;;;23.42;63.95;100494.84;1729756;82;21115;-57
2022/07/05 00:25:39;;;;;;;7.95;6.45;;;;;;;23.42;63.97;100493.50;1727194;82;21098;-58
2022/07/05 00:28:07;;;;;;;8.50;6.60;;;;;;;23.39;63.98;100495.25;1722114;82;21367;-57
2022/07/05 00:30:34;;;;;;;9.28;7.05;;;;;;;23.31;64.09;100492.23;1730875;81;21119;-57
2022/07/05 00:33:01;;;;;;;7.37;6.33;;;;;;;23.25;64.07;100489.53;1725693;82;21121;-59
2022/07/05 00:35:28;;;;;;;8.10;6.47;;;;;;;23.23;63.98;100495.63;1729601;82;21114;-58
2022/07/05 00:37:54;;;;;;;10.63;6.65;;;;;;;23.18;63.85;100502.45;1729323;82;21169;-58
2022/07/05 00:40:21;;;;;;;8.40;6.60;;;;;;;23.12;63.93;100501.91;1730364;81;21008;-57
2022/07/05 00:42:48;;;;;;;8.70;6.65;;;;;;;23.07;63.95;100512.42;1661442;84;21007;-57
2022/07/05 00:45:14;;;;;;;7.72;6.12;;;;;;;23.03;63.98;100501.73;1728979;82;21287;-58
2022/07/05 00:47:42;;;;;;;9.65;6.90;;;;;;;23.02;64.06;100498.75;1714901;82;21122;-58
2022/07/05 00:50:09;;;;;;;9.15;6.83;;;;;;;23.01;64.16;100498.42;1670417;84;21085;-58
2022/07/05 00:52:37;;;;;;;12.03;7.67;;;;;;;22.99;64.26;100504.52;1679356;84;21946;-57
2022/07/05 00:55:05;;;;;;;10.48;7.37;;;;;;;22.95;64.23;100501.94;1728462;82;22517;-57
2022/07/05 00:57:32;;;;;;;9.43;7.80;;;;;;;22.92;64.16;100508.52;1736836;82;21704;-57
2022/07/05 00:59:59;;;;;;;9.45;7.15;;;;;;;22.90;63.97;100505.74;1747823;81;21141;-57
2022/07/05 01:02:26;;;;;;;9.28;7.03;;;;;;;22.84;63.53;100507.34;1746671;81;21055;-58
2022/07/05 01:04:52;;;;;;;9.18;7.12;;;;;;;22.78;63.39;100508.98;1735538;82;21594;-57
2022/07/05 01:07:21;;;;;;;7.53;5.75;;;;;;;22.73;63.50;100511.45;1733650;82;21633;-58
2022/07/05 01:09:49;;;;;;;7.12;6.20;;;;;;;22.75;64.00;100512.59;1739393;82;21066;-58
2022/07/05 01:12:17;;;;;;;7.62;5.72;;;;;;;22.81;64.25;100512.62;1736637;81;21042;-58
2022/07/05 01:14:43;;;;;;;8.23;6.42;;;;;;;22.87;64.34;100515.52;1731638;82;21574;-58
2022/07/05 01:17:10;;;;;;;8.18;6.25;;;;;;;22.91;64.45;100514.90;1735142;81;21080;-57
2022/07/05 01:19:37;;;;;;;8.40;5.97;;;;;;;22.93;64.51;100507.50;1734162;81;22314;-57
2022/07/05 01:22:04;;;;;;;11.65;6.87;;;;;;;22.92;64.50;100505.02;1733170;81;21762;-57
2022/07/05 01:24:31;;;;;;;7.97;6.08;;;;;;;22.92;64.67;100503.67;1739480;82;21023;-57
2022/07/05 01:26:57;;;;;;;9.30;6.47;;;;;;;22.89;64.80;100506.23;1738088;81;21110;-57
2022/07/05 01:29:24;;;;;;;7.08;5.87;;;;;;;22.86;64.83;100505.29;1725748;81;21005;-57
2022/07/05 01:31:51;;;;;;;9.28;6.20;;;;;;;22.86;64.92;100507.16;1737147;82;21269;-57
2022/07/05 01:34:17;;;;;;;12.23;5.85;;;;;;;22.87;64.77;100506.14;1733667;81;21789;-57
2022/07/05 01:36:44;;;;;;;8.10;6.15;;;;;;;22.87;64.78;100512.84;1730445;82;21519;-57
2022/07/05 01:39:10;;;;;;;8.20;6.55;;;;;;;22.84;64.88;100510.03;1736741;81;21075;-57
2022/07/05 01:41:37;;;;;;;8.43;5.75;;;;;;;22.82;64.89;100508.07;1732698;82;20999;-57
2022/07/05 01:44:04;;;;;;;7.65;6.08;;;;;;;22.78;64.97;100511.67;1734614;81;21134;-58
2022/07/05 01:46:33;;;;;;;8.88;6.47;;;;;;;22.75;65.02;100513.94;1739047;82;21538;-57
2022/07/05 01:49:03;;;;;;;11.43;6.20;;;;;;;22.69;65.18;100510.17;1729132;82;21118;-57
2022/07/05 01:51:38;;;;;;;10.75;6.70;;;;;;;22.68;65.43;100503.66;1739598;81;21114;-57
2022/07/05 01:54:05;;;;;;;12.93;6.92;;;;;;;22.72;65.52;100515.66;1738468;81;21568;-57
2022/07/05 01:56:31;;;;;;;8.08;5.92;;;;;;;22.71;65.46;100516.69;1737975;81;21043;-58
2022/07/05 01:58:59;;;;;;;8.60;6.22;;;;;;;22.68;65.68;100517.92;1741274;81;21493;-57
2022/07/05 02:01:37;;;;;;;8.18;6.85;;;;;;;22.63;65.92;100517.70;1751322;81;21054;-57
2022/07/05 02:04:07;;;;;;;9.33;7.83;;;;;;;22.59;66.05;100517.27;1743310;81;21107;-58
2022/07/05 02:06:34;;;;;;;10.80;8.70;;;;;;;22.57;66.29;100523.32;1744239;81;21062;-58
2022/07/05 02:09:01;;;;;;;8.93;7.12;;;;;;;22.51;66.58;100516.58;1743090;80;21090;-58
2022/07/05 02:11:28;;;;;;;9.45;6.53;;;;;;;22.51;66.68;100513.90;1741879;81;21233;-58
2022/07/05 02:13:56;;;;;;;10.18;6.95;;;;;;;22.55;66.86;100513.31;1747833;81;21089;-58
2022/07/05 02:16:27;;;;;;;8.73;7.00;;;;;;;22.57;66.57;100513.94;1724745;81;21118;-58
2022/07/05 02:18:54;;;;;;;9.60;7.67;;;;;;;22.55;66.60;100512.49;1736435;81;21073;-57
2022/07/05 02:21:21;;;;;;;9.38;7.05;;;;;;;22.54;66.64;100512.17;1738283;81;21098;-58
2022/07/05 02:23:49;;;;;;;8.93;7.40;;;;;;;22.51;66.77;100507.20;1744642;81;21513;-58
2022/07/05 02:26:16;;;;;;;14.03;7.67;;;;;;;22.51;66.70;100512.56;1745349;81;21062;-57
2022/07/05 02:28:43;;;;;;;12.85;6.72;;;;;;;22.54;66.61;100509.48;1734188;81;21011;-57
2022/07/05 02:31:10;;;;;;;9.98;6.70;;;;;;;22.55;66.54;100505.27;1741699;81;21085;-57
2022/07/05 02:33:37;;;;;;;9.13;6.25;;;;;;;22.61;66.37;100513.87;1744084;81;21058;-57
2022/07/05 02:36:10;;;;;;;7.17;6.10;;;;;;;22.64;66.36;100516.65;1750276;81;21120;-58
2022/07/05 02:38:36;;;;;;;9.60;6.70;;;;;;;22.63;66.57;100510.47;1703774;83;21573;-58
2022/07/05 02:41:10;;;;;;;7.70;6.37;;;;;;;22.63;66.69;100513.15;1681533;84;21092;-57
2022/07/05 02:43:38;;;;;;;9.83;7.95;;;;;;;22.63;66.78;100515.02;1668829;84;21082;-57
2022/07/05 02:46:07;;;;;;;9.58;7.03;;;;;;;22.62;66.92;100515.50;1681611;84;21095;-58
2022/07/05 02:48:35;;;;;;;8.73;6.50;;;;;;;22.64;66.96;100516.65;1683031;84;21078;-57
2022/07/05 02:51:03;;;;;;;10.35;6.95;;;;;;;22.69;66.61;100518.22;1703825;83;21109;-57
2022/07/05 02:53:30;;;;;;;9.10;7.37;;;;;;;22.68;66.25;100525.13;1682982;84;21177;-57
2022/07/05 02:55:58;;;;;;;8.48;7.17;;;;;;;22.63;66.27;100522.53;1675310;84;21143;-57
2022/07/05 02:58:25;;;;;;;10.23;7.67;;;;;;;22.62;66.30;100521.39;1678490;84;21071;-58
2022/07/05 03:00:52;;;;;;;8.28;6.58;;;;;;;22.61;66.37;100519.73;1723086;81;21096;-57
2022/07/05 03:03:20;;;;;;;8.78;7.10;;;;;;;22.62;66.36;100522.21;1720759;82;21012;-57
2022/07/05 03:05:48;;;;;;;9.08;7.15;;;;;;;22.69;66.32;100526.79;1726182;82;21047;-57
2022/07/05 03:19:41;;;;;;;8.70;7.37;;;;;;;23.72;63.82;100530.20;1861942;76;22682;-57
2022/07/05 03:22:09;;;;;;;11.55;7.25;;;;;;;23.83;63.36;100524.74;1818080;77;21087;-57
2022/07/05 03:24:36;;;;;;;10.13;7.42;;;;;;;23.85;63.06;100527.22;1824596;77;21248;-57
2022/07/05 03:27:04;;;;;;;11.12;7.62;;;;;;;23.81;63.29;100524.09;1782765;80;20998;-57
2022/07/05 03:29:31;;;;;;;10.00;8.05;;;;;;;23.78;63.45;100521.00;1785404;79;21192;-57
2022/07/05 03:31:58;;;;;;;10.58;8.00;;;;;;;23.72;63.77;100525.31;1784642;80;21076;-57
2022/07/05 03:34:25;;;;;;;10.18;7.50;;;;;;;23.68;63.99;100522.75;1781658;80;20950;-57
2022/07/05 03:36:53;;;;;;;8.93;7.20;;;;;;;23.66;64.30;100525.64;1767786;80;21146;-57
2022/07/05 03:39:20;;;;;;;11.12;7.42;;;;;;;23.73;64.45;100526.98;1760074;80;20978;-57
2022/07/05 03:41:47;;;;;;;12.10;7.83;;;;;;;23.76;64.49;100530.61;1779459;79;21069;-57
2022/07/05 03:44:16;;;;;;;10.03;7.62;;;;;;;23.80;64.55;100532.36;1782980;79;21075;-57
2022/07/05 03:46:42;;;;;;;8.50;6.35;;;;;;;23.81;64.60;100528.66;1786015;79;21100;-57
2022/07/05 03:49:10;;;;;;;9.50;7.05;;;;;;;23.82;64.42;100533.00;1786224;79;21214;-57
2022/07/05 03:51:37;;;;;;;12.00;6.80;;;;;;;23.85;63.37;100528.05;1784468;79;21836;-57
2022/07/05 03:54:05;;;;;;;8.75;6.75;;;;;;;23.89;62.76;100529.83;1783432;79;21008;-57
2022/07/05 03:56:32;;;;;;;8.90;6.28;;;;;;;23.88;62.13;100526.29;1786808;79;21024;-57
2022/07/05 03:59:00;;;;;;;8.85;6.05;;;;;;;23.92;61.81;100524.02;1762743;80;21103;-57
2022/07/05 04:01:28;;;;;;;8.90;6.53;;;;;;;23.94;60.97;100526.00;1785147;79;21113;-57
2022/07/05 04:03:55;;;;;;;10.40;5.92;;;;;;;23.95;60.92;100525.47;1785085;79;21081;-58
2022/07/05 04:06:21;;;;;;;9.03;5.80;;;;;;;23.99;60.13;100524.01;1776327;79;21097;-57
2022/07/05 04:08:50;;;;;;;7.25;5.95;;;;;;;24.00;59.42;100527.83;1784942;79;21657;-58
2022/07/05 04:11:17;;;;;;;9.88;5.53;;;;;;;24.01;59.11;100530.03;1786540;79;21543;-58
2022/07/05 04:13:46;;;;;;;7.90;5.55;;;;;;;24.00;58.31;100528.36;1783872;79;21126;-57
2022/07/05 04:16:13;;;;;;;8.78;5.90;;;;;;;23.98;58.50;100525.06;1787112;79;21037;-57
2022/07/05 04:18:39;;;;;;;8.28;5.97;;;;;;;23.98;58.45;100526.41;1784166;79;21042;-58
2022/07/05 04:21:06;;;;;;;7.80;5.67;;;;;;;23.98;57.95;100522.38;1786673;79;21183;-58
2022/07/05 04:23:33;;;;;;;7.97;6.05;;;;;;;23.96;57.88;100521.23;1754376;80;20970;-57
2022/07/05 04:26:01;;;;;;;8.95;5.97;;;;;;;23.98;58.01;100519.69;1783482;79;21566;-57
2022/07/05 04:28:33;;;;;;;8.03;6.40;;;;;;;24.04;57.73;100518.83;1784356;79;21540;-58
2022/07/05 04:30:58;;;;;;;7.65;5.67;;;;;;;24.14;57.16;100522.45;1784550;79;21520;-59
2022/07/05 04:33:25;;;;;;;9.35;6.58;;;;;;;24.22;57.22;100523.58;1780413;80;21111;-59
2022/07/05 04:35:54;;;;;;;7.85;5.75;;;;;;;24.27;57.39;100523.24;1783121;79;21072;-58
2022/07/05 04:38:20;;;;;;;8.28;5.80;;;;;;;24.33;57.23;100521.59;1784376;80;21033;-58
2022/07/05 04:40:47;;;;;;;7.47;5.45;;;;;;;24.37;56.03;100524.16;1785061;79;21050;-59
2022/07/05 04:43:15;;;;;;;8.28;6.42;;;;;;;24.36;55.31;100523.88;1784358;79;21638;-59
2022/07/05 04:45:42;;;;;;;11.25;6.95;;;;;;;24.36;55.26;100524.37;1786873;79;21503;-59
2022/07/05 04:48:09;;;;;;;6.60;5.35;;;;;;;24.37;55.45;100529.54;1729483;79;21096;-58
2022/07/05 04:50:37;;;;;;;8.30;5.92;;;;;;;24.40;55.58;100529.13;1772232;80;22109;-59
2022/07/05 04:53:05;;;;;;;8.65;5.87;;;;;;;24.43;55.36;100520.64;1769639;80;21000;-59
2022/07/05 04:55:32;;;;;;;9.15;6.60;;;;;;;24.44;55.34;100519.61;1788900;79;21036;-59
2022/07/05 04:57:58;;;;;;;8.85;6.08;;;;;;;24.46;55.26;100515.34;1769241;80;21133;-59
2022/07/05 05:00:25;;;;;;;9.28;6.20;;;;;;;24.49;54.88;100518.95;1771727;80;21113;-59
2022/07/05 05:02:52;;;;;;;8.90;6.53;;;;;;;24.54;55.02;100519.14;1776081;80;22772;-59
2022/07/05 05:05:19;;;;;;;8.33;6.15;;;;;;;24.56;55.05;100517.12;1767406;79;21112;-59
2022/07/05 05:07:46;;;;;;;8.60;6.78;;;;;;;24.58;55.05;100524.95;1772296;80;21070;-59
2022/07/05 05:10:13;;;;;;;9.83;6.62;;;;;;;24.63;55.22;100521.95;1767050;79;21008;-59
2022/07/05 05:12:39;;;;;;;10.85;6.78;;;;;;;24.70;55.29;100521.93;1768515;80;21071;-59
2022/07/05 05:15:09;;;;;;;9.88;7.12;;;;;;;24.75;54.62;100525.34;1764108;80;21126;-59
2022/07/05 05:17:40;;;;;;;10.25;6.87;;;;;;;24.74;54.25;100518.30;1772560;80;21642;-59
2022/07/05 05:20:10;;;;;;;9.38;7.08;;;;;;;24.79;55.10;100527.37;1769275;80;21104;-59
2022/07/05 05:22:40;;;;;;;10.48;7.00;;;;;;;24.85;56.33;100523.02;1763013;80;21055;-59
2022/07/05 05:25:08;;;;;;;9.78;7.37;;;;;;;24.96;56.67;100528.23;1769323;80;21639;-59
2022/07/05 05:27:43;;;;;;;9.18;7.15;;;;;;;25.06;56.56;100535.33;1768886;80;21051;-59
2022/07/05 05:30:12;;;;;;;10.13;7.45;;;;;;;25.17;56.71;100531.96;1763254;80;21024;-59
2022/07/05 05:32:39;;;;;;;9.95;7.65;;;;;;;25.26;56.84;100531.21;1772854;80;21131;-59
2022/07/05 05:35:08;;;;;;;9.38;7.35;;;;;;;25.32;56.31;100534.92;1770194;80;21087;-59
2022/07/05 05:37:52;;;;;;;8.58;7.05;;;;;;;25.36;56.08;100531.56;1769379;80;21098;-59
2022/07/05 05:40:24;;;;;;;10.68;8.18;;;;;;;25.40;56.19;100533.30;1762714;79;21149;-59
2022/07/05 05:42:51;;;;;;;9.68;7.15;;;;;;;25.43;55.80;100533.39;1772952;80;21686;-59
2022/07/05 05:45:19;;;;;;;10.38;7.80;;;;;;;25.44;55.68;100532.36;1768268;80;21043;-59
2022/07/05 05:47:53;;;;;;;8.63;7.22;;;;;;;25.45;56.08;100536.16;1769278;80;20983;-58
2022/07/05 05:50:23;;;;;;;8.73;7.28;;;;;;;25.46;55.74;100536.47;1766784;79;20994;-59
2022/07/05 05:52:50;;;;;;;10.70;7.97;;;;;;;25.46;55.69;100534.31;1768996;80;21070;-59
2022/07/05 05:55:17;;;;;;;9.58;7.15;;;;;;;25.46;56.09;100527.05;1766873;80;21463;-58
2022/07/05 05:57:43;;;;;;;9.03;8.10;;;;;;;25.48;55.81;100534.91;1766875;79;21047;-58
2022/07/05 06:00:10;;;;;;;10.43;7.47;;;;;;;25.51;55.61;100534.48;1761114;80;20985;-59
2022/07/05 06:02:40;;;;;;;9.10;7.05;;;;;;;25.56;55.56;100531.42;1774628;80;21114;-59
2022/07/05 06:05:09;;;;;;;9.45;7.53;;;;;;;25.61;55.72;100531.31;1767051;80;21541;-59
2022/07/05 06:07:52;;;;;;;10.82;7.00;;;;;;;25.65;55.85;100531.16;1740211;80;21110;-59
2022/07/05 06:10:27;;;;;;;9.88;7.10;;;;;;;25.72;55.90;100528.73;1761891;80;21047;-59
2022/07/05 06:12:56;;;;;;;7.90;6.12;;;;;;;25.88;55.24;100526.53;1764206;80;21015;-59
2022/07/05 06:15:26;;;;;;;8.88;6.25;;;;;;;26.00;54.28;100527.47;1762859;80;21074;-59
2022/07/05 06:17:54;;;;;;;10.40;6.83;;;;;;;26.08;53.82;100530.42;1748758;80;21519;-59
2022/07/05 06:20:23;;;;;;;8.83;6.62;;;;;;;26.12;54.06;100532.97;1764803;80;21043;-59
2022/07/05 06:22:50;;;;;;;9.28;6.78;;;;;;;26.17;53.55;100533.13;1766517;80;21070;-59
2022/07/05 06:25:19;;;;;;;9.95;6.90;;;;;;;26.22;53.74;100529.77;1766793;80;21312;-59
2022/07/05 06:27:50;;;;;;;8.03;6.78;;;;;;;26.31;53.64;100530.61;1767210;80;21057;-59
2022/07/05 06:30:19;;;;;;;9.70;6.22;;;;;;;26.37;53.90;100530.22;1762645;80;21117;-59
2022/07/05 06:32:48;;;;;;;10.30;6.80;;;;;;;26.44;54.15;100528.27;1768457;80;21099;-59
2022/07/05 06:35:15;;;;;;;7.85;6.33;;;;;;;26.53;53.70;100525.28;1770437;80;21531;-59
2022/07/05 06:37:51;;;;;;;8.40;6.90;;;;;;;26.62;53.96;100526.11;1739817;80;21010;-59
2022/07/05 06:40:21;;;;;;;9.38;6.92;;;;;;;26.66;53.65;100528.70;1769718;80;21104;-59
2022/07/05 06:42:53;;;;;;;8.60;6.62;;;;;;;26.69;54.14;100523.36;1765012;80;21796;-59
2022/07/05 06:45:25;;;;;;;9.58;6.20;;;;;;;26.71;54.34;100523.14;1761722;80;21015;-59
2022/07/05 06:47:56;;;;;;;9.15;6.80;;;;;;;26.76;54.09;100517.88;1765386;80;21082;-59
2022/07/05 06:50:24;;;;;;;9.65;6.87;;;;;;;26.81;54.21;100517.48;1750094;80;21059;-59
2022/07/05 06:52:52;;;;;;;9.05;6.80;;;;;;;26.86;53.89;100517.66;1755545;80;21057;-59
2022/07/05 06:55:19;;;;;;;9.80;6.80;;;;;;;26.87;53.29;100523.34;1761882;80;21149;-59
2022/07/05 06:57:45;;;;;;;10.60;6.85;;;;;;;26.87;53.18;100523.88;1762338;80;20991;-59
2022/07/05 07:00:13;;;;;;;8.93;7.10;;;;;;;26.87;53.40;100521.17;1763512;80;21115;-59
2022/07/05 07:02:40;;;;;;;8.45;7.10;;;;;;;26.88;53.09;100523.65;1768368;79;21003;-60
2022/07/05 07:05:08;;;;;;;8.50;6.95;;;;;;;26.90;53.16;100527.47;1762620;80;21762;-59
2022/07/05 07:10:19;;;;;;;8.70;6.37;;;;;;;26.96;53.43;100523.84;1768375;80;21046;-59
2022/07/05 07:12:46;;;;;;;9.08;6.87;;;;;;;27.01;52.49;100528.03;1770972;80;21057;-59
2022/07/05 07:15:13;;;;;;;11.33;6.53;;;;;;;27.05;52.04;100524.38;1765374;80;21059;-59
2022/07/05 07:17:41;;;;;;;7.83;6.15;;;;;;;27.08;50.85;100515.79;1766604;80;21062;-59
2022/07/05 07:20:09;;;;;;;9.30;6.67;;;;;;;27.14;50.75;100520.82;1761544;79;21145;-59
2022/07/05 07:22:35;;;;;;;8.33;7.05;;;;;;;27.20;50.96;100523.43;1744422;81;21622;-59
2022/07/05 07:25:05;;;;;;;9.40;6.87;;;;;;;27.29;51.31;100527.19;1757643;80;20986;-59
2022/07/05 07:27:32;;;;;;;7.55;6.15;;;;;;;27.37;50.22;100516.03;1754605;80;21105;-59
2022/07/05 07:29:58;;;;;;;7.00;6.03;;;;;;;27.46;49.29;100520.59;1760673;79;21014;-59
2022/07/05 07:32:25;;;;;;;7.62;6.03;;;;;;;27.54;48.18;100522.43;1744461;80;21172;-59
2022/07/05 07:34:51;;;;;;;10.58;5.75;;;;;;;27.61;48.33;100516.38;1759537;80;21085;-59
2022/07/05 07:37:18;;;;;;;7.75;5.85;;;;;;;27.70;48.49;100522.27;1759395;80;21058;-59
2022/07/05 07:39:45;;;;;;;8.70;6.28;;;;;;;27.78;48.54;100517.88;1766920;79;21041;-59
2022/07/05 07:42:12;;;;;;;9.68;5.67;;;;;;;27.86;48.98;100518.06;1776667;79;21108;-60
2022/07/05 07:44:38;;;;;;;8.00;6.50;;;;;;;27.93;49.62;100512.04;1755303;80;21157;-59
2022/07/05 07:47:05;;;;;;;8.70;6.10;;;;;;;28.02;50.02;100515.75;1761178;80;21423;-59
2022/07/05 07:49:31;;;;;;;8.18;5.72;;;;;;;28.09;49.76;100511.03;1756375;80;21094;-59
2022/07/05 07:51:58;;;;;;;10.03;5.72;;;;;;;28.18;50.08;100510.98;1760918;80;21517;-59
2022/07/05 07:54:24;;;;;;;9.03;5.75;;;;;;;28.23;48.57;100505.68;1756660;80;21509;-59
2022/07/05 07:56:51;;;;;;;7.80;5.37;;;;;;;28.28;48.22;100505.80;1753059;80;21863;-59
2022/07/05 07:59:17;;;;;;;8.10;5.22;;;;;;;28.33;48.39;100501.84;1755399;80;21591;-59
2022/07/05 08:01:44;;;;;;;6.55;4.95;;;;;;;28.40;47.62;100500.36;1750573;80;21502;-59
2022/07/05 08:04:13;;;;;;;7.67;5.08;;;;;;;28.46;46.23;100499.41;1754394;80;21046;-59
2022/07/05 08:06:40;;;;;;;9.10;5.78;;;;;;;28.53;46.32;100500.64;1766206;80;21003;-59
2022/07/05 08:09:06;;;;;;;6.78;5.03;;;;;;;28.62;45.74;100498.41;1748513;80;22474;-59
2022/07/05 08:11:33;;;;;;;11.00;5.17;;;;;;;28.70;45.28;100494.78;1750013;80;21090;-59
2022/07/05 08:14:00;;;;;;;10.28;5.55;;;;;;;28.77;44.99;100490.58;1755412;80;21065;-59
2022/07/05 08:16:26;;;;;;;9.23;5.30;;;;;;;28.84;44.97;100489.08;1759642;80;21050;-59
2022/07/05 08:21:38;;;;;;;7.87;5.43;;;;;;;29.00;44.67;100480.70;1737599;81;22041;-59
2022/07/05 08:24:10;;;;;;;7.40;5.20;;;;;;;29.07;44.35;100480.84;1739965;81;21083;-59
2022/07/05 08:26:36;;;;;;;7.72;5.75;;;;;;;29.16;44.73;100485.88;1738791;81;21181;-59
2022/07/05 08:29:06;;;;;;;7.80;5.22;;;;;;;29.23;43.19;100479.79;1746351;81;21003;-59
2022/07/05 08:31:35;;;;;;;8.88;5.17;;;;;;;29.32;42.84;100474.78;1743731;81;20987;-59
2022/07/05 08:34:01;;;;;;;6.78;5.00;;;;;;;29.39;43.29;100472.76;1740681;81;21093;-59
2022/07/05 08:36:28;;;;;;;8.00;5.00;;;;;;;29.45;43.46;100472.59;1750767;81;21078;-59
2022/07/05 08:38:54;;;;;;;6.60;4.85;;;;;;;29.57;43.33;100479.29;1731879;80;21015;-59
2022/07/05 08:41:22;;;;;;;6.72;4.50;;;;;;;29.67;42.95;100478.60;1737720;80;21121;-59
2022/07/05 08:43:49;;;;;;;7.87;4.92;;;;;;;29.75;41.90;100474.13;1743609;80;21066;-59
2022/07/05 08:46:16;;;;;;;6.92;5.08;;;;;;;29.83;42.28;100475.63;1739345;81;21085;-59
2022/07/05 08:48:44;;;;;;;7.33;4.62;;;;;;;29.93;41.91;100467.64;1732315;80;21444;-59
2022/07/05 08:51:16;;;;;;;5.95;4.60;;;;;;;29.99;41.60;100471.23;1722866;81;21035;-59
2022/07/05 08:53:43;;;;;;;9.60;5.17;;;;;;;30.05;41.94;100468.89;1731553;81;22813;-59
2022/07/05 08:56:12;;;;;;;6.53;4.58;;;;;;;30.12;42.40;100470.87;1738790;81;21568;-59
2022/07/05 08:58:39;;;;;;;6.80;4.60;;;;;;;30.18;41.32;100465.00;1734086;81;21303;-59
2022/07/05 09:01:08;;;;;;;6.67;5.25;;;;;;;30.23;41.29;100462.35;1743092;81;21058;-59
2022/07/05 09:03:46;;;;;;;7.80;5.50;;;;;;;30.29;40.40;100468.66;1743282;81;21532;-59
2022/07/05 09:06:20;;;;;;;8.53;5.47;;;;;;;30.32;40.02;100472.23;1748119;81;21126;-59
2022/07/05 09:08:48;;;;;;;7.10;5.55;;;;;;;30.38;40.48;100468.55;1742338;81;21073;-59
2022/07/05 09:11:16;;;;;;;8.43;5.75;;;;;;;30.44;40.35;100468.06;1721592;81;21872;-59
2022/07/05 09:13:46;;;;;;;7.45;5.60;;;;;;;30.47;40.50;100464.30;1747356;81;21007;-59
2022/07/05 09:16:13;;;;;;;6.83;5.45;;;;;;;30.50;39.47;100467.87;1748259;81;20995;-59
2022/07/05 09:18:50;;;;;;;7.58;4.83;;;;;;;30.58;39.54;100466.61;1742672;80;21129;-59
2022/07/05 09:21:25;;;;;;;7.65;5.37;;;;;;;30.66;39.65;100472.92;1747686;81;21050;-59
2022/07/05 09:24:03;;;;;;;7.30;4.72;;;;;;;30.73;40.02;100470.01;1743455;81;21120;-59
2022/07/05 09:26:43;;;;;;;8.08;5.37;;;;;;;30.80;39.47;100467.94;1749501;81;21577;-58
2022/07/05 09:29:12;;;;;;;7.55;5.30;;;;;;;30.85;39.36;100462.55;1745282;81;20999;-59
2022/07/05 09:31:42;;;;;;;6.90;5.10;;;;;;;30.91;38.48;100470.20;1750876;81;21125;-59
2022/07/05 09:34:13;;;;;;;9.18;5.00;;;;;;;30.97;39.34;100464.30;1747505;81;21058;-59
2022/07/05 09:36:58;;;;;;;6.10;4.97;;;;;;;31.07;38.78;100467.14;1746247;81;21137;-59
2022/07/05 09:39:36;;;;;;;7.78;4.97;;;;;;;31.17;38.61;100466.39;1735609;81;21081;-59
2022/07/05 09:42:20;;;;;;;6.60;4.90;;;;;;;31.24;38.21;100470.55;1749248;81;21054;-58
2022/07/05 09:44:50;;;;;;;6.62;4.97;;;;;;;31.29;38.47;100465.16;1746847;81;21532;-59
2022/07/05 09:47:19;;;;;;;6.05;4.92;;;;;;;31.32;36.76;100467.91;1745392;81;21552;-59
2022/07/05 09:49:52;;;;;;;7.75;5.08;;;;;;;31.30;35.55;100465.45;1748705;80;21086;-59
2022/07/05 09:52:37;;;;;;;6.83;5.10;;;;;;;31.24;34.20;100466.47;1739537;81;21101;-59
2022/07/05 09:55:13;;;;;;;8.38;4.72;;;;;;;31.19;34.96;100457.47;1743633;81;21366;-59
2022/07/05 09:57:41;;;;;;;8.43;5.90;;;;;;;31.21;35.68;100468.34;1747490;81;21088;-59
2022/07/05 10:00:17;;;;;;;8.63;5.35;;;;;;;31.30;36.58;100466.81;1744739;81;21129;-59
2022/07/05 10:02:49;;;;;;;6.85;4.40;;;;;;;31.39;35.89;100463.06;1749299;81;21141;-59
2022/07/05 10:05:19;;;;;;;5.80;4.55;;;;;;;31.42;35.74;100460.35;1749319;81;21050;-59
2022/07/05 10:07:50;;;;;;;7.90;5.22;;;;;;;31.42;35.45;100465.27;1746198;81;21544;-59
2022/07/05 10:10:20;;;;;;;6.92;4.78;;;;;;;31.38;35.21;100461.97;1746079;81;21650;-59
2022/07/05 10:12:50;;;;;;;5.75;4.35;;;;;;;31.37;36.06;100462.52;1748452;81;21054;-59
2022/07/05 10:15:21;;;;;;;6.25;4.83;;;;;;;31.38;35.84;100467.41;1744451;81;21130;-59
2022/07/05 10:18:11;;;;;;;6.20;4.42;;;;;;;31.41;35.00;100462.81;1743949;81;21050;-59
2022/07/05 10:20:40;;;;;;;5.80;4.65;;;;;;;31.47;34.89;100459.88;1738212;81;21546;-59
2022/07/05 10:23:11;;;;;;;6.08;4.65;;;;;;;31.60;36.08;100459.98;1783935;80;20999;-59
2022/07/05 10:25:40;;;;;;;7.12;5.22;;;;;;;31.77;35.96;100457.09;1781261;79;21125;-59
2022/07/05 10:28:07;;;;;;;5.60;4.42;;;;;;;31.87;35.35;100456.34;1785201;79;21130;-59
2022/07/05 10:30:34;;;;;;;7.70;4.65;;;;;;;31.98;35.29;100455.33;1768146;79;21596;-59
2022/07/05 10:33:03;;;;;;;6.53;4.40;;;;;;;32.09;35.34;100449.96;1772104;79;21027;-59
2022/07/05 10:35:30;;;;;;;7.03;5.10;;;;;;;32.17;35.24;100445.38;1767779;79;21375;-59
2022/07/05 10:37:57;;;;;;;7.17;4.85;;;;;;;32.29;36.23;100441.88;1762859;80;21667;-59
2022/07/05 10:40:23;;;;;;;6.22;4.75;;;;;;;32.36;35.41;100442.98;1757413;80;21131;-59
2022/07/05 10:42:56;;;;;;;7.20;5.10;;;;;;;32.43;35.20;100438.66;1769585;80;21528;-59
2022/07/05 10:45:36;;;;;;;6.05;4.10;;;;;;;32.44;34.81;100437.58;1764962;80;21556;-59
2022/07/05 10:48:15;;;;;;;6.80;4.80;;;;;;;32.47;35.04;100438.41;1772712;80;21689;-59
2022/07/05 10:50:49;;;;;;;6.03;5.17;;;;;;;32.53;34.64;100437.33;1760247;80;21078;-59
2022/07/05 10:53:17;;;;;;;6.37;5.05;;;;;;;32.57;34.77;100438.44;1759467;80;21140;-59
2022/07/05 10:56:00;;;;;;;6.92;5.25;;;;;;;32.61;34.49;100431.91;1755961;80;21094;-59
2022/07/05 10:58:32;;;;;;;6.22;4.53;;;;;;;32.66;34.27;100435.48;1755976;80;21019;-58
2022/07/05 11:01:24;;;;;;;7.10;5.17;;;;;;;32.64;33.63;100437.66;1762090;80;21052;-58
2022/07/05 11:04:14;;;;;;;10.70;5.37;;;;;;;32.61;33.62;100430.02;1755721;80;21098;-58
2022/07/05 11:06:42;;;;;;;6.92;5.25;;;;;;;32.49;33.65;100429.42;1749020;79;21190;-58
2022/07/05 11:09:15;;;;;;;6.78;4.78;;;;;;;32.36;33.76;100420.69;1753767;80;20980;-58
2022/07/05 11:11:52;;;;;;;7.08;5.45;;;;;;;32.27;34.60;100426.91;1759590;80;21050;-58
2022/07/05 11:14:28;;;;;;;7.00;4.83;;;;;;;32.21;34.37;100424.17;1756492;80;21122;-58
2022/07/05 11:17:22;;;;;;;7.50;5.05;;;;;;;32.17;35.23;100423.05;1764652;79;21002;-58
2022/07/05 11:20:14;;;;;;;6.40;4.83;;;;;;;32.17;36.08;100419.52;1768565;80;21096;-58
2022/07/05 11:23:06;;;;;;;7.58;5.08;;;;;;;32.20;35.71;100414.35;1757589;80;21035;-58
2022/07/05 11:25:39;;;;;;;7.10;5.33;;;;;;;32.32;36.35;100410.04;1767765;80;21022;-58
2022/07/05 11:28:12;;;;;;;7.65;5.67;;;;;;;32.39;35.37;100418.77;1765834;80;21080;-58
2022/07/05 11:30:55;;;;;;;7.60;5.62;;;;;;;32.40;35.01;100409.52;1755733;80;21038;-58
2022/07/05 11:33:30;;;;;;;8.83;5.80;;;;;;;32.40;35.49;100411.44;1763781;80;21338;-58
2022/07/05 11:36:01;;;;;;;6.95;5.42;;;;;;;32.36;35.58;100415.24;1761204;79;21114;-58
2022/07/05 11:38:26;;;;;;;7.05;5.05;;;;;;;32.34;35.29;100417.94;1764412;80;22407;-58
2022/07/05 11:40:56;;;;;;;7.70;5.22;;;;;;;32.30;35.66;100412.77;1761986;79;21542;-58
2022/07/05 11:43:28;;;;;;;6.37;5.15;;;;;;;32.26;35.78;100416.55;1785111;78;21092;-58
2022/07/05 11:46:02;;;;;;;6.70;5.03;;;;;;;32.21;36.36;100413.28;1764176;79;22335;-58
2022/07/05 11:48:29;;;;;;;6.35;4.80;;;;;;;32.22;35.34;100415.45;1774887;79;21133;-58
2022/07/05 11:50:56;;;;;;;7.12;5.35;;;;;;;32.21;35.04;100414.64;1772064;79;21094;-58